MSC Sinfonia — H8XH — position and weather

sailwx.info

Track history (hours):
 
Tides and Currents Weather Stations Pressure Air Temp Water Temp Dewpoint Dewpoint Depression Visibility Wind Speed Wind Dir Waves Ship Positions

MSC Sinfonia

Last reported at 2015-Jan-12 18:33 UTC. Time now 2015-Mar-04 02:45 UTC.
Position N 38°08' E 013°22'.
Warning: this ship's position is 50 days out of date.

Length 251 m; draft 6.8 m.

Type: Passenger vessel. MMSI: 356715971.

Date/timePositionNaut miles runAvg speedWind from/ knotsBaromVisibWave heightAir tempDewpointWater temp
2015-Jan-12 18:33N 38°08' E 013°22'0 0.0
2015-Jan-12 17:33N 38°08' E 013°22'0 0.0
2015-Jan-12 16:33N 38°08' E 013°22'0 0.0
2015-Jan-12 15:33N 38°08' E 013°22'0 0.0
2015-Jan-12 14:33N 38°08' E 013°22'0 0.0
2015-Jan-12 13:33N 38°08' E 013°22'0 0.0
2015-Jan-12 12:33N 38°08' E 013°22'0 0.0
2015-Jan-12 11:33N 38°08' E 013°22'0 0.2
2015-Jan-12 10:33N 38°08' E 013°22'0 0.3
2015-Jan-12 09:33N 38°08' E 013°23'5 4.8
2015-Jan-12 08:33N 38°13' E 013°24'10 9.9
2015-Jan-12 07:33N 38°22' E 013°19'9 9.0
2015-Jan-12 06:32N 38°27' E 013°09'8 8.1
2015-Jan-12 05:33N 38°32' E 013°01'292 9.3
2015-Jan-10 22:03N 42°46' E 009°50'3411.9
2015-Jan-10 19:12N 43°16' E 009°31'1116.8
2015-Jan-10 18:34N 43°27' E 009°26'1616.3
2015-Jan-10 17:33N 43°42' E 009°18'1616.2
2015-Jan-10 16:34N 43°57' E 009°09'1514.8
2015-Jan-10 15:34N 44°11' E 009°02'1111.2
2015-Jan-10 14:34N 44°21' E 008°57'4 3.2
2015-Jan-10 13:26N 44°25' E 008°55'0 0.0
2015-Jan-10 12:32N 44°25' E 008°55'0 0.0
2015-Jan-10 11:32N 44°25' E 008°55'0 0.0
2015-Jan-10 10:26N 44°25' E 008°55'0 0.0
2015-Jan-10 09:26N 44°25' E 008°55'0 0.0
2015-Jan-10 08:32N 44°25' E 008°55'0 0.0
2015-Jan-10 07:32N 44°25' E 008°55'2 1.7
2015-Jan-10 06:33N 44°23' E 008°57'1312.6
2015-Jan-10 05:34N 44°12' E 009°05'1818.2
2015-Jan-10 04:34N 43°57' E 009°19'1817.8
2015-Jan-10 03:34N 43°42' E 009°32'1817.5
2015-Jan-10 02:34N 43°26' E 009°43'1917.4
2015-Jan-10 01:26N 43°09' E 009°56'  
2015-Jan-07 14:10N 37°23' E 020°24'179 6.7
2015-Jan-06 11:32N 37°36' E 024°09'2117.4
2015-Jan-06 10:20N 37°51' E 024°29'  
2015-Jan-03 16:16N 37°48' E 024°24'1616.1
2015-Jan-03 15:17N 37°36' E 024°10'1815.9
2015-Jan-03 14:09N 37°38' E 023°47'1016.4
2015-Jan-03 13:34N 37°46' E 023°39'1110.7
2015-Jan-03 12:34N 37°56' E 023°38'0 0.0
2015-Jan-03 11:33N 37°56' E 023°38'0 0.0
2015-Jan-03 10:33N 37°56' E 023°38'0 0.0
2015-Jan-03 09:33N 37°56' E 023°38'0 0.0
2015-Jan-03 08:33N 37°56' E 023°38'0 0.0
2015-Jan-03 07:33N 37°56' E 023°38'0 0.0
2015-Jan-03 06:33N 37°56' E 023°38'0 0.0
2015-Jan-03 05:33N 37°56' E 023°38'0 0.0
2015-Jan-03 04:33N 37°56' E 023°38'5 5.0
2015-Jan-03 03:33N 37°51' E 023°39'1211.7
2015-Jan-03 02:33N 37°41' E 023°45'  
Track history (hours):
 
Tides and Currents Weather Stations Pressure Air Temp Water Temp Dewpoint Dewpoint Depression Visibility Wind Speed Wind Dir Waves Ship Positions

MSC Sinfonia

Last reported at 2015-Jan-12 18:33 UTC. Time now 2015-Mar-04 02:45 UTC.
Position N 38°08' E 013°22'.
Warning: this ship's position is 50 days out of date.

Length 251 m; draft 6.8 m.

Type: Passenger vessel. MMSI: 356715971.

Date/timePositionNaut miles runAvg speedWind from/ knotsBaromVisibWave heightAir tempDewpointWater temp
2015-Jan-12 18:33N 38°08' E 013°22'0 0.0
2015-Jan-12 17:33N 38°08' E 013°22'0 0.0
2015-Jan-12 16:33N 38°08' E 013°22'0 0.0
2015-Jan-12 15:33N 38°08' E 013°22'0 0.0
2015-Jan-12 14:33N 38°08' E 013°22'0 0.0
2015-Jan-12 13:33N 38°08' E 013°22'0 0.0
2015-Jan-12 12:33N 38°08' E 013°22'0 0.0
2015-Jan-12 11:33N 38°08' E 013°22'0 0.2
2015-Jan-12 10:33N 38°08' E 013°22'0 0.3
2015-Jan-12 09:33N 38°08' E 013°23'5 4.8
2015-Jan-12 08:33N 38°13' E 013°24'10 9.9
2015-Jan-12 07:33N 38°22' E 013°19'9 9.0
2015-Jan-12 06:32N 38°27' E 013°09'8 8.1
2015-Jan-12 05:33N 38°32' E 013°01'292 9.3
2015-Jan-10 22:03N 42°46' E 009°50'3411.9
2015-Jan-10 19:12N 43°16' E 009°31'1116.8
2015-Jan-10 18:34N 43°27' E 009°26'1616.3
2015-Jan-10 17:33N 43°42' E 009°18'1616.2
2015-Jan-10 16:34N 43°57' E 009°09'1514.8
2015-Jan-10 15:34N 44°11' E 009°02'1111.2
2015-Jan-10 14:34N 44°21' E 008°57'4 3.2
2015-Jan-10 13:26N 44°25' E 008°55'0 0.0
2015-Jan-10 12:32N 44°25' E 008°55'0 0.0
2015-Jan-10 11:32N 44°25' E 008°55'0 0.0
2015-Jan-10 10:26N 44°25' E 008°55'0 0.0
2015-Jan-10 09:26N 44°25' E 008°55'0 0.0
2015-Jan-10 08:32N 44°25' E 008°55'0 0.0
2015-Jan-10 07:32N 44°25' E 008°55'2 1.7
2015-Jan-10 06:33N 44°23' E 008°57'1312.6
2015-Jan-10 05:34N 44°12' E 009°05'1818.2
2015-Jan-10 04:34N 43°57' E 009°19'1817.8
2015-Jan-10 03:34N 43°42' E 009°32'1817.5
2015-Jan-10 02:34N 43°26' E 009°43'1917.4
2015-Jan-10 01:26N 43°09' E 009°56'  
2015-Jan-07 14:10N 37°23' E 020°24'179 6.7
2015-Jan-06 11:32N 37°36' E 024°09'2117.4
2015-Jan-06 10:20N 37°51' E 024°29'  
2015-Jan-03 16:16N 37°48' E 024°24'1616.1
2015-Jan-03 15:17N 37°36' E 024°10'1815.9
2015-Jan-03 14:09N 37°38' E 023°47'1016.4
2015-Jan-03 13:34N 37°46' E 023°39'1110.7
2015-Jan-03 12:34N 37°56' E 023°38'0 0.0
2015-Jan-03 11:33N 37°56' E 023°38'0 0.0
2015-Jan-03 10:33N 37°56' E 023°38'0 0.0
2015-Jan-03 09:33N 37°56' E 023°38'0 0.0
2015-Jan-03 08:33N 37°56' E 023°38'0 0.0
2015-Jan-03 07:33N 37°56' E 023°38'0 0.0
2015-Jan-03 06:33N 37°56' E 023°38'0 0.0
2015-Jan-03 05:33N 37°56' E 023°38'0 0.0
2015-Jan-03 04:33N 37°56' E 023°38'5 5.0
2015-Jan-03 03:33N 37°51' E 023°39'1211.7
2015-Jan-03 02:33N 37°41' E 023°45'  

Dump ship's entire track history